createdAt,value
2018-05-21T00:01:16.281Z,14.70
2018-05-21T00:03:56.922Z,14.70
2018-05-21T00:06:24.256Z,14.70
2018-05-21T00:08:55.685Z,14.70
2018-05-21T00:11:24.268Z,14.80
2018-05-21T00:13:52.657Z,14.80
2018-05-21T00:16:22.997Z,14.60
2018-05-21T00:18:51.589Z,14.60
2018-05-21T00:21:47.342Z,14.50
2018-05-21T00:24:18.665Z,14.40
2018-05-21T00:26:48.842Z,14.40
2018-05-21T00:29:15.456Z,14.50
2018-05-21T00:32:08.194Z,14.50
2018-05-21T00:34:39.671Z,14.50
2018-05-21T00:37:08.306Z,14.40
2018-05-21T00:39:39.992Z,14.40
2018-05-21T00:42:12.046Z,14.40
2018-05-21T00:44:41.663Z,14.50
2018-05-21T00:47:08.230Z,14.50
2018-05-21T00:49:37.736Z,14.50
2018-05-21T00:52:21.168Z,14.40
2018-05-21T00:55:09.137Z,14.30
2018-05-21T00:57:40.069Z,14.30
2018-05-21T01:00:08.681Z,14.30
2018-05-21T01:02:41.868Z,14.30
2018-05-21T01:05:18.457Z,14.30
2018-05-21T01:07:48.070Z,14.40
2018-05-21T01:10:16.688Z,14.50
2018-05-21T01:12:56.581Z,14.50
2018-05-21T01:15:28.861Z,14.50
2018-05-21T01:18:01.445Z,14.40
2018-05-21T01:20:56.468Z,14.40
2018-05-21T01:23:25.730Z,14.40
2018-05-21T01:26:04.052Z,14.30
2018-05-21T01:28:45.776Z,14.20
2018-05-21T01:31:12.430Z,14.10
2018-05-21T01:33:49.709Z,14.20
2018-05-21T01:36:24.158Z,14.20
2018-05-21T01:38:59.400Z,14.20
2018-05-21T01:41:35.171Z,14.20
2018-05-21T01:44:03.779Z,14.20
2018-05-21T01:46:31.384Z,14.20
2018-05-21T01:49:07.518Z,14.20
2018-05-21T01:51:44.305Z,14.10
2018-05-21T01:54:19.142Z,14.10
2018-05-21T01:56:52.752Z,14.00
2018-05-21T01:59:35.700Z,14.00
2018-05-21T02:02:03.070Z,14.00
2018-05-21T02:04:35.656Z,14.00
2018-05-21T02:07:09.083Z,14.00
2018-05-21T02:10:05.557Z,14.00
2018-05-21T02:12:38.301Z,13.90
2018-05-21T02:15:09.891Z,13.90
2018-05-21T02:17:54.025Z,13.90
2018-05-21T02:21:03.801Z,13.80
2018-05-21T02:23:30.776Z,13.80
2018-05-21T02:26:01.297Z,13.80
2018-05-21T02:28:40.142Z,13.80
2018-05-21T02:31:26.177Z,13.90
2018-05-21T02:33:59.509Z,13.80
2018-05-21T02:36:39.100Z,13.80
2018-05-21T02:39:12.741Z,13.70
2018-05-21T02:41:45.912Z,13.70
2018-05-21T02:44:13.316Z,13.70
2018-05-21T02:46:41.869Z,13.80
2018-05-21T02:49:14.282Z,13.70
2018-05-21T02:51:49.633Z,13.70
2018-05-21T02:54:28.457Z,13.60
2018-05-21T02:57:06.177Z,13.60
2018-05-21T02:59:38.878Z,13.50
2018-05-21T03:02:11.376Z,13.50
2018-05-21T03:04:48.145Z,13.50
2018-05-21T03:07:15.392Z,13.50
2018-05-21T03:09:44.029Z,13.60
2018-05-21T03:12:29.672Z,13.60
2018-05-21T03:15:06.602Z,13.60
2018-05-21T03:17:41.844Z,13.40
2018-05-21T03:20:16.375Z,13.40
2018-05-21T03:22:49.892Z,13.50
2018-05-21T03:25:21.450Z,13.50
2018-05-21T03:27:50.989Z,13.40
2018-05-21T03:30:19.576Z,13.30
2018-05-21T03:32:51.487Z,13.30
2018-05-21T03:35:21.697Z,13.20
2018-05-21T03:37:52.926Z,13.10
2018-05-21T03:40:21.068Z,13.10
2018-05-21T03:43:03.588Z,13.00
2018-05-21T03:45:37.461Z,13.00
2018-05-21T03:48:26.274Z,13.00
2018-05-21T03:50:58.770Z,13.10
2018-05-21T03:53:33.361Z,13.20
2018-05-21T03:56:13.940Z,13.30
2018-05-21T03:58:55.798Z,13.30
2018-05-21T04:01:37.564Z,13.30
2018-05-21T04:04:11.462Z,13.30
2018-05-21T04:06:38.544Z,13.30
2018-05-21T04:09:08.836Z,13.30
2018-05-21T04:11:35.408Z,13.50
2018-05-21T04:14:07.826Z,13.80
2018-05-21T04:16:55.377Z,13.90
2018-05-21T04:19:28.952Z,14.00
2018-05-21T04:21:55.538Z,14.10
2018-05-21T04:24:23.821Z,14.30
2018-05-21T04:26:53.130Z,15.00
2018-05-21T04:29:25.697Z,15.00
2018-05-21T04:31:56.429Z,15.60
2018-05-21T04:34:32.404Z,15.60
2018-05-21T04:37:01.932Z,15.70
2018-05-21T04:39:31.346Z,15.90
2018-05-21T04:42:00.901Z,16.40
2018-05-21T04:44:30.168Z,16.20
2018-05-21T04:46:57.366Z,16.20
2018-05-21T04:49:37.445Z,16.30
2018-05-21T04:52:13.477Z,16.10
2018-05-21T04:54:44.108Z,16.10
2018-05-21T04:57:13.771Z,16.30
2018-05-21T04:59:41.845Z,16.00
2018-05-21T05:02:33.192Z,15.40
2018-05-21T05:05:01.051Z,15.40
2018-05-21T05:07:29.426Z,15.50
2018-05-21T05:09:57.692Z,15.50
2018-05-21T05:12:30.928Z,15.50
2018-05-21T05:14:58.489Z,15.50
2018-05-21T05:17:34.865Z,15.60
2018-05-21T05:20:08.149Z,15.60
2018-05-21T05:22:36.834Z,15.80
2018-05-21T05:25:49.131Z,15.80
2018-05-21T05:28:37.189Z,16.10
2018-05-21T05:31:09.840Z,16.10
2018-05-21T05:33:43.042Z,16.20
2018-05-21T05:36:57.669Z,16.20
2018-05-21T05:39:29.000Z,16.30
2018-05-21T05:41:59.733Z,16.30
2018-05-21T05:44:28.332Z,16.30
2018-05-21T05:47:04.752Z,16.30
2018-05-21T05:49:35.769Z,16.40
2018-05-21T05:52:02.313Z,16.40
2018-05-21T05:54:30.539Z,16.50
2018-05-21T05:57:34.153Z,16.70
2018-05-21T06:00:01.396Z,16.70
2018-05-21T06:02:36.321Z,16.70
2018-05-21T06:05:05.253Z,16.70
2018-05-21T06:07:47.158Z,16.70
2018-05-21T06:10:16.416Z,16.80
2018-05-21T06:12:51.004Z,16.90
2018-05-21T06:15:19.405Z,17.10
2018-05-21T06:17:46.740Z,17.10
2018-05-21T06:20:23.941Z,17.20
2018-05-21T06:22:59.592Z,17.30
2018-05-21T06:25:32.815Z,17.50
2018-05-21T06:28:05.001Z,17.50
2018-05-21T06:30:31.660Z,17.60
2018-05-21T06:33:17.464Z,17.40
2018-05-21T06:35:47.872Z,17.60
2018-05-21T06:38:27.589Z,17.60
2018-05-21T06:41:04.707Z,17.70
2018-05-21T06:43:51.393Z,17.60
2018-05-21T06:46:21.480Z,17.50
2018-05-21T06:48:53.947Z,17.70
2018-05-21T06:51:21.577Z,17.90
2018-05-21T06:53:50.959Z,18.00
2018-05-21T06:56:17.597Z,18.00
2018-05-21T06:58:56.158Z,17.90
2018-05-21T07:01:24.256Z,17.60
2018-05-21T07:03:55.976Z,17.80
2018-05-21T07:06:23.557Z,17.80
2018-05-21T07:08:52.773Z,18.00
2018-05-21T07:11:25.806Z,18.00
2018-05-21T07:13:54.259Z,17.80
2018-05-21T07:16:27.502Z,17.90
2018-05-21T07:19:00.957Z,17.80
2018-05-21T07:21:37.310Z,18.50
2018-05-21T07:24:13.936Z,18.90
2018-05-21T07:26:44.907Z,18.90
2018-05-21T07:29:12.565Z,19.00
2018-05-21T07:31:41.048Z,19.30
2018-05-21T07:34:09.350Z,19.30
2018-05-21T07:36:36.609Z,19.30
2018-05-21T07:39:10.181Z,19.40
2018-05-21T07:41:45.925Z,19.40
2018-05-21T07:44:19.340Z,19.40
2018-05-21T07:46:47.519Z,19.60
2018-05-21T07:49:17.865Z,19.60
2018-05-21T07:51:46.509Z,19.40
2018-05-21T07:54:19.269Z,19.40
2018-05-21T07:56:48.809Z,19.80
2018-05-21T07:59:20.349Z,19.90
2018-05-21T08:01:48.359Z,19.90
2018-05-21T08:04:17.882Z,19.70
2018-05-21T08:06:55.818Z,19.70
2018-05-21T08:09:23.420Z,19.80
2018-05-21T08:11:53.169Z,19.90
2018-05-21T08:14:19.861Z,20.10
2018-05-21T08:16:46.541Z,20.00
2018-05-21T08:19:13.173Z,19.90
2018-05-21T08:21:40.578Z,20.30
2018-05-21T08:24:23.380Z,20.40
2018-05-21T08:26:53.620Z,20.10
2018-05-21T08:29:21.113Z,20.30
2018-05-21T08:31:48.730Z,20.30
2018-05-21T08:34:15.303Z,20.30
2018-05-21T08:36:54.838Z,20.60
2018-05-21T08:39:29.472Z,20.40
2018-05-21T08:42:02.088Z,20.30
2018-05-21T08:44:36.546Z,20.40
2018-05-21T08:47:06.061Z,20.40
2018-05-21T08:49:39.544Z,20.40
2018-05-21T08:52:10.478Z,20.60
2018-05-21T08:54:38.194Z,20.30
2018-05-21T08:57:05.537Z,20.50
2018-05-21T08:59:38.012Z,20.70
2018-05-21T09:02:15.909Z,20.60
2018-05-21T09:04:56.532Z,20.60
2018-05-21T09:07:29.631Z,20.80
2018-05-21T09:09:58.173Z,20.80
2018-05-21T09:12:30.442Z,21.10
2018-05-21T09:15:03.611Z,21.10
2018-05-21T09:17:34.152Z,21.10
2018-05-21T09:20:00.961Z,21.10
2018-05-21T09:22:28.579Z,20.80
2018-05-21T09:25:03.106Z,20.80
2018-05-21T09:27:39.784Z,20.80
2018-05-21T09:30:06.377Z,20.90
2018-05-21T09:32:58.512Z,20.80
2018-05-21T09:35:38.572Z,20.60
2018-05-21T09:38:09.189Z,20.60
2018-05-21T09:40:41.576Z,20.60
2018-05-21T09:43:10.072Z,20.90
2018-05-21T09:45:40.685Z,21.10
2018-05-21T09:48:12.318Z,21.40
2018-05-21T09:51:11.785Z,21.60
2018-05-21T09:53:39.241Z,21.90
2018-05-21T09:56:10.137Z,21.90
2018-05-21T09:58:45.304Z,22.10
2018-05-21T10:01:12.024Z,22.10
2018-05-21T10:03:38.605Z,21.90
2018-05-21T10:06:27.702Z,21.80
2018-05-21T10:08:58.922Z,21.80
2018-05-21T10:11:31.485Z,21.90
2018-05-21T10:14:00.125Z,21.80
2018-05-21T10:16:27.568Z,21.30
2018-05-21T10:19:00.137Z,21.40
2018-05-21T10:21:29.674Z,21.70
2018-05-21T10:23:58.855Z,22.00
2018-05-21T10:26:25.373Z,22.00
2018-05-21T10:28:56.595Z,22.10
2018-05-21T10:31:27.048Z,22.20
2018-05-21T10:33:54.682Z,22.10
2018-05-21T10:36:24.305Z,22.20
2018-05-21T10:38:56.581Z,22.30
2018-05-21T10:41:25.180Z,22.30
2018-05-21T10:43:54.385Z,22.70
2018-05-21T10:46:21.584Z,22.70
2018-05-21T10:48:53.045Z,22.90
2018-05-21T10:51:26.459Z,23.10
2018-05-21T10:53:52.992Z,23.20
2018-05-21T10:56:19.691Z,23.00
2018-05-21T10:58:46.949Z,23.30
2018-05-21T11:01:16.093Z,23.20
2018-05-21T11:03:48.832Z,23.00
2018-05-21T11:06:15.753Z,22.70
2018-05-21T11:08:53.878Z,22.90
2018-05-21T11:11:38.869Z,23.20
2018-05-21T11:14:15.750Z,23.30
2018-05-21T11:16:42.389Z,23.30
2018-05-21T11:19:13.348Z,23.50
2018-05-21T11:21:40.669Z,23.40
2018-05-21T11:24:11.724Z,23.40
2018-05-21T11:26:40.077Z,23.30
2018-05-21T11:29:08.577Z,23.30
2018-05-21T11:31:35.127Z,23.50
2018-05-21T11:34:02.504Z,23.40
2018-05-21T11:36:29.942Z,23.30
2018-05-21T11:39:08.113Z,23.50
2018-05-21T11:41:37.731Z,23.40
2018-05-21T11:44:13.132Z,23.50
2018-05-21T11:46:42.750Z,23.30
2018-05-21T11:49:12.165Z,23.30
2018-05-21T11:51:45.473Z,23.50
2018-05-21T11:54:12.117Z,23.40
2018-05-21T11:56:43.373Z,23.60
2018-05-21T11:59:11.660Z,23.60
2018-05-21T12:01:42.212Z,23.90
2018-05-21T12:04:09.600Z,24.00
2018-05-21T12:06:39.120Z,23.70
2018-05-21T12:09:11.381Z,23.60
2018-05-21T12:11:46.539Z,23.80
2018-05-21T12:14:16.776Z,23.70
2018-05-21T12:16:45.246Z,23.80
2018-05-21T12:19:23.098Z,23.80
2018-05-21T12:21:49.737Z,24.00
2018-05-21T12:24:17.186Z,24.30
2018-05-21T12:26:43.781Z,24.30
2018-05-21T12:29:10.592Z,24.40
2018-05-21T12:31:37.232Z,24.30
2018-05-21T12:34:04.697Z,24.20
2018-05-21T12:36:34.680Z,24.50
2018-05-21T12:39:07.252Z,24.50
2018-05-21T12:41:41.582Z,24.80
2018-05-21T12:44:16.289Z,24.50
2018-05-21T12:46:43.764Z,24.70
2018-05-21T12:49:12.483Z,24.90
2018-05-21T12:51:39.829Z,25.00
2018-05-21T12:54:06.398Z,24.90
2018-05-21T12:59:31.712Z,24.80
2018-05-21T13:01:58.386Z,24.80
2018-05-21T13:04:25.058Z,24.70
2018-05-21T13:06:52.301Z,24.60
2018-05-21T13:09:19.767Z,25.00
2018-05-21T13:11:46.465Z,25.40
2018-05-21T13:14:13.182Z,25.40
2018-05-21T13:16:39.925Z,25.40
2018-05-21T13:19:07.340Z,25.30
2018-05-21T13:21:34.957Z,25.10
2018-05-21T13:24:02.271Z,25.10
2018-05-21T13:26:29.757Z,25.10
2018-05-21T13:28:56.563Z,25.10
2018-05-21T13:31:23.139Z,25.10
2018-05-21T13:33:49.915Z,25.20
2018-05-21T13:36:16.662Z,24.90
2018-05-21T13:38:44.242Z,24.90
2018-05-21T13:41:11.180Z,24.80
2018-05-21T13:43:37.829Z,24.70
2018-05-21T13:46:06.521Z,25.00
2018-05-21T13:48:33.278Z,25.00
2018-05-21T13:51:00.144Z,24.90
2018-05-21T13:53:29.697Z,24.90
2018-05-21T13:55:57.149Z,25.30
2018-05-21T13:58:23.776Z,25.30
2018-05-21T14:00:50.569Z,25.40
2018-05-21T14:03:17.285Z,25.70
2018-05-21T14:05:43.911Z,26.00
2018-05-21T14:08:10.563Z,25.70
2018-05-21T14:10:37.930Z,25.80
2018-05-21T14:13:05.409Z,26.00
2018-05-21T14:15:32.745Z,25.90
2018-05-21T14:17:59.397Z,25.80
2018-05-21T14:20:26.775Z,26.00
2018-05-21T14:22:54.333Z,26.00
2018-05-21T14:25:21.809Z,25.80
2018-05-21T14:27:49.054Z,25.60
2018-05-21T14:30:16.349Z,25.60
2018-05-21T14:32:43.697Z,26.00
2018-05-21T14:35:11.344Z,25.90
2018-05-21T14:37:38.657Z,26.20
2018-05-21T14:40:06.033Z,26.00
2018-05-21T14:42:35.778Z,26.00
2018-05-21T14:45:02.588Z,26.00
2018-05-21T14:47:29.297Z,26.30
2018-05-21T14:49:56.026Z,26.20
2018-05-21T14:52:23.377Z,26.60
2018-05-21T14:54:50.893Z,26.60
2018-05-21T14:57:18.318Z,26.70
2018-05-21T14:59:44.850Z,26.60
2018-05-21T15:02:11.425Z,26.40
2018-05-21T15:04:38.082Z,26.10
2018-05-21T15:07:05.869Z,25.70
2018-05-21T15:09:34.707Z,25.80
2018-05-21T15:12:03.402Z,25.70
2018-05-21T15:14:30.155Z,25.70
2018-05-21T15:16:59.646Z,26.50
2018-05-21T15:19:27.086Z,26.30
2018-05-21T15:21:54.441Z,26.40
2018-05-21T15:24:21.030Z,26.50
2018-05-21T15:26:47.750Z,26.40
2018-05-21T15:29:14.424Z,26.20
2018-05-21T15:31:41.788Z,26.70
2018-05-21T15:34:08.344Z,26.70
2018-05-21T15:36:35.909Z,26.60
2018-05-21T15:39:06.814Z,26.70
2018-05-21T15:41:35.183Z,26.50
2018-05-21T15:44:01.890Z,26.50
2018-05-21T15:46:28.524Z,26.40
2018-05-21T15:48:56.690Z,26.10
2018-05-21T15:51:23.374Z,26.10
2018-05-21T15:53:50.044Z,26.10
2018-05-21T15:56:16.592Z,26.00
2018-05-21T15:58:43.321Z,25.90
2018-05-21T16:01:10.937Z,25.60
2018-05-21T16:03:38.277Z,25.80
2018-05-21T16:06:06.870Z,25.70
2018-05-21T16:08:33.539Z,25.60
2018-05-21T16:11:01.815Z,25.50
2018-05-21T16:13:28.463Z,25.50
2018-05-21T16:15:57.042Z,25.50
2018-05-21T16:18:23.637Z,25.50
2018-05-21T16:20:50.301Z,25.40
2018-05-21T16:23:17.619Z,25.40
2018-05-21T16:25:44.210Z,25.30
2018-05-21T16:28:11.653Z,24.90
2018-05-21T16:30:38.181Z,24.90
2018-05-21T16:33:06.862Z,24.90
2018-05-21T16:35:33.577Z,24.30
2018-05-21T16:38:00.981Z,23.70
2018-05-21T16:40:27.590Z,23.70
2018-05-21T16:42:54.926Z,23.50
2018-05-21T16:45:27.369Z,23.30
2018-05-21T16:47:56.937Z,23.30
2018-05-21T16:50:24.463Z,23.10
2018-05-21T16:52:52.740Z,22.90
2018-05-21T16:55:20.266Z,22.90
2018-05-21T16:57:47.153Z,22.80
2018-05-21T17:00:14.574Z,22.90
2018-05-21T17:02:43.609Z,23.10
2018-05-21T17:05:10.229Z,23.10
2018-05-21T17:07:36.898Z,23.20
2018-05-21T17:10:07.721Z,23.20
2018-05-21T17:12:38.041Z,23.00
2018-05-21T17:15:04.754Z,23.00
2018-05-21T17:17:31.419Z,22.90
2018-05-21T17:19:59.721Z,22.70
2018-05-21T17:22:26.821Z,22.70
2018-05-21T17:24:53.426Z,22.60
2018-05-21T17:27:20.126Z,22.70
2018-05-21T17:29:47.797Z,22.70
2018-05-21T17:32:14.329Z,22.80
2018-05-21T17:34:41.905Z,22.70
2018-05-21T17:37:08.898Z,22.60
2018-05-21T17:39:35.714Z,22.20
2018-05-21T17:42:04.178Z,22.10
2018-05-21T17:44:30.886Z,21.90
2018-05-21T17:46:59.489Z,21.90
2018-05-21T17:49:27.987Z,22.00
2018-05-21T17:51:57.433Z,23.10
2018-05-21T17:54:24.166Z,23.00
2018-05-21T17:56:51.951Z,23.00
2018-05-21T17:59:18.673Z,23.10
2018-05-21T18:01:45.955Z,23.50
2018-05-21T18:04:16.369Z,23.70
2018-05-21T18:06:43.157Z,23.70
2018-05-21T18:09:10.597Z,23.60
2018-05-21T18:11:37.983Z,23.60
2018-05-21T18:14:05.579Z,23.20
2018-05-21T18:16:33.374Z,23.00
2018-05-21T18:19:01.010Z,22.60
2018-05-21T18:21:27.577Z,22.20
2018-05-21T18:23:54.324Z,21.80
2018-05-21T18:26:21.085Z,21.40
2018-05-21T18:28:48.913Z,21.30
2018-05-21T18:31:16.249Z,21.30
2018-05-21T18:33:44.235Z,21.30
2018-05-21T18:36:10.838Z,21.30
2018-05-21T18:38:37.493Z,21.30
2018-05-21T18:41:04.912Z,21.00
2018-05-21T18:43:36.958Z,20.90
2018-05-21T18:46:05.254Z,20.90
2018-05-21T18:48:33.002Z,20.80
2018-05-21T18:51:06.485Z,20.70
2018-05-21T18:53:33.088Z,20.60
2018-05-21T18:56:00.142Z,20.50
2018-05-21T18:58:28.626Z,20.20
2018-05-21T19:00:56.689Z,20.00
2018-05-21T19:03:25.117Z,20.00
2018-05-21T19:05:51.852Z,19.80
2018-05-21T19:08:23.384Z,19.60
2018-05-21T19:10:50.040Z,19.50
2018-05-21T19:13:17.494Z,19.20
2018-05-21T19:15:47.077Z,19.20
2018-05-21T19:18:17.903Z,19.30
2018-05-21T19:20:46.412Z,19.00
2018-05-21T19:23:15.821Z,18.80
2018-05-21T19:25:44.101Z,18.70
2018-05-21T19:28:14.948Z,18.70
2018-05-21T19:30:42.613Z,18.70
2018-05-21T19:33:12.142Z,18.60
2018-05-21T19:35:40.530Z,18.50
2018-05-21T19:38:08.239Z,18.40
2018-05-21T19:40:40.595Z,18.40
2018-05-21T19:43:10.234Z,18.30
2018-05-21T19:45:39.161Z,18.40
2018-05-21T19:48:06.575Z,18.40
2018-05-21T19:50:40.677Z,18.30
2018-05-21T19:53:10.103Z,18.30
2018-05-21T19:55:38.613Z,18.20
2018-05-21T19:58:08.941Z,18.20
2018-05-21T20:00:40.306Z,18.10
2018-05-21T20:03:08.044Z,18.00
2018-05-21T20:05:46.213Z,17.80
2018-05-21T20:08:12.891Z,17.80
2018-05-21T20:10:39.614Z,17.70
2018-05-21T20:13:12.820Z,17.60
2018-05-21T20:15:43.273Z,17.60
2018-05-21T20:18:28.845Z,17.50
2018-05-21T20:20:56.018Z,17.50
2018-05-21T20:23:25.560Z,17.40
2018-05-21T20:25:52.331Z,17.20
2018-05-21T20:28:21.829Z,17.00
2018-05-21T20:30:49.022Z,17.00
2018-05-21T20:33:16.741Z,17.00
2018-05-21T20:35:46.465Z,16.90
2018-05-21T20:38:15.070Z,17.00
2018-05-21T20:40:43.281Z,16.90
2018-05-21T20:43:13.658Z,16.80
2018-05-21T20:45:40.338Z,16.80
2018-05-21T20:48:08.229Z,16.70
2018-05-21T20:50:35.901Z,16.70
2018-05-21T20:53:06.650Z,16.70
2018-05-21T20:55:34.452Z,16.60
2018-05-21T20:58:03.244Z,16.60
2018-05-21T21:00:34.051Z,16.70
2018-05-21T21:03:00.954Z,16.70
2018-05-21T21:05:28.695Z,16.90
2018-05-21T21:07:57.205Z,16.90
2018-05-21T21:10:24.791Z,16.90
2018-05-21T21:12:52.258Z,17.00
2018-05-21T21:15:20.656Z,16.90
2018-05-21T21:17:48.340Z,16.90
2018-05-21T21:20:15.786Z,17.10
2018-05-21T21:22:42.417Z,17.10
2018-05-21T21:25:09.741Z,17.10
2018-05-21T21:27:39.889Z,17.00
2018-05-21T21:30:08.614Z,17.10
2018-05-21T21:32:35.289Z,17.10
2018-05-21T21:35:01.844Z,17.20
2018-05-21T21:37:28.470Z,17.20
2018-05-21T21:39:57.807Z,17.10
2018-05-21T21:42:28.245Z,17.10
2018-05-21T21:44:59.981Z,16.90
2018-05-21T21:47:26.681Z,16.90
2018-05-21T21:50:04.066Z,16.80
2018-05-21T21:52:38.428Z,16.80
2018-05-21T21:55:07.077Z,16.90
2018-05-21T21:57:34.653Z,16.90
2018-05-21T22:00:04.930Z,17.00
2018-05-21T22:02:32.686Z,17.00
2018-05-21T22:04:59.589Z,17.00
2018-05-21T22:07:28.347Z,17.20
2018-05-21T22:10:01.575Z,17.40
2018-05-21T22:12:30.334Z,17.40
2018-05-21T22:14:57.589Z,17.40
2018-05-21T22:17:28.170Z,17.40
2018-05-21T22:19:56.205Z,17.10
2018-05-21T22:22:24.003Z,17.10
2018-05-21T22:24:50.588Z,17.00
2018-05-21T22:27:17.321Z,16.90
2018-05-21T22:29:44.897Z,16.90
2018-05-21T22:32:12.157Z,16.90
2018-05-21T22:34:38.820Z,16.80
2018-05-21T22:37:08.921Z,16.70
2018-05-21T22:39:36.710Z,16.70
2018-05-21T22:42:05.202Z,16.60
2018-05-21T22:44:37.863Z,16.60
2018-05-21T22:47:08.792Z,16.60
2018-05-21T22:49:36.885Z,16.50
2018-05-21T22:52:05.318Z,16.10
2018-05-21T22:54:33.931Z,16.10
2018-05-21T22:57:00.557Z,16.10
2018-05-21T22:59:28.985Z,16.00
2018-05-21T23:02:04.227Z,16.00
2018-05-21T23:04:30.861Z,16.00
2018-05-21T23:06:59.189Z,16.00
2018-05-21T23:09:27.648Z,15.90
2018-05-21T23:11:56.050Z,15.80
2018-05-21T23:14:25.570Z,15.70
2018-05-21T23:16:53.955Z,15.70
2018-05-21T23:19:20.602Z,15.70
2018-05-21T23:21:50.110Z,15.80
2018-05-21T23:24:17.979Z,15.80
2018-05-21T23:26:44.764Z,15.90
2018-05-21T23:29:12.113Z,16.10
2018-05-21T23:31:39.933Z,16.10
2018-05-21T23:34:06.806Z,16.20
2018-05-21T23:36:34.157Z,16.30
2018-05-21T23:39:02.690Z,16.30
2018-05-21T23:41:30.564Z,16.30
2018-05-21T23:43:57.354Z,16.20
2018-05-21T23:46:24.746Z,16.10
2018-05-21T23:48:52.896Z,16.00
2018-05-21T23:51:21.185Z,16.00
2018-05-21T23:53:47.914Z,15.80
2018-05-21T23:56:20.134Z,15.70
2018-05-21T23:58:50.501Z,15.50
